Time;durP1;ratioP1;P1;durP2;ratioP2;P2;SDS_P1;SDS_P2;PMS_P1;PMS_P2;Temp;Humidity;BMP_temperature;BMP_pressure;BME280_temperature;BME280_humidity;BME280_pressure;Samples;Min_cycle;Max_cycle;Signal;HPM_P1;HPM_P2
2023/02/27 00:00:54;;;;;;;8.27;1.40;;;4.60;99.90;;;;;;6307213;22;20391;-89
2023/02/27 00:03:20;;;;;;;6.20;1.75;;;4.10;99.90;;;;;;6306049;22;20095;-90
2023/02/27 00:05:49;;;;;;;9.38;2.55;;;5.00;99.90;;;;;;6307305;22;20490;-89
2023/02/27 00:08:20;;;;;;;11.48;3.55;;;4.50;99.90;;;;;;6306797;22;20365;-90
2023/02/27 00:10:51;;;;;;;20.25;5.22;;;4.70;99.90;;;;;;6306537;22;20031;-91
2023/02/27 00:13:17;;;;;;;18.33;5.07;;;4.60;99.90;;;;;;6307157;22;20366;-90
2023/02/27 00:15:49;;;;;;;19.50;5.93;;;5.10;99.90;;;;;;6307533;22;20027;-89
2023/02/27 00:18:14;;;;;;;16.42;4.90;;;5.30;99.90;;;;;;6306867;22;20323;-90
2023/02/27 00:20:42;;;;;;;12.80;3.83;;;4.50;99.90;;;;;;6307908;22;20023;-90
2023/02/27 00:23:11;;;;;;;4.20;2.13;;;4.00;99.90;;;;;;6307405;22;20032;-90
2023/02/27 00:25:42;;;;;;;8.00;2.05;;;3.60;99.90;;;;;;6306722;22;20053;-89
2023/02/27 00:28:14;;;;;;;5.00;1.40;;;4.50;99.90;;;;;;6307393;22;20035;-90
2023/02/27 00:30:46;;;;;;;6.03;1.60;;;4.70;99.90;;;;;;6307711;22;20458;-89
2023/02/27 00:33:14;;;;;;;5.00;1.40;;;4.00;99.90;;;;;;6306336;22;20011;-90
2023/02/27 00:35:40;;;;;;;5.38;1.50;;;4.10;99.90;;;;;;6307770;22;20311;-89
2023/02/27 00:38:11;;;;;;;3.22;1.15;;;4.60;99.90;;;;;;6306515;22;20063;-89
2023/02/27 00:40:40;;;;;;;9.10;1.25;;;4.60;99.90;;;;;;6307097;22;20458;-89
2023/02/27 00:43:11;;;;;;;3.28;1.45;;;4.20;99.90;;;;;;6307140;22;20430;-89
2023/02/27 00:48:08;;;;;;;6.95;1.63;;;3.90;99.90;;;;;;6305966;22;20835;-89
2023/02/27 00:50:34;;;;;;;4.47;1.65;;;4.60;99.90;;;;;;6307196;22;20009;-87
2023/02/27 00:53:00;;;;;;;3.75;1.45;;;5.20;99.90;;;;;;6306285;22;20047;-89
2023/02/27 00:55:25;;;;;;;3.70;2.00;;;4.50;99.90;;;;;;6307210;22;20003;-89
2023/02/27 00:57:54;;;;;;;4.95;1.58;;;4.20;99.90;;;;;;6307013;22;20006;-89
2023/02/27 01:00:20;;;;;;;2.97;1.42;;;4.20;99.90;;;;;;6307070;22;20419;-89
2023/02/27 01:02:51;;;;;;;5.40;1.42;;;3.90;99.90;;;;;;6307938;22;19999;-90
2023/02/27 01:05:17;;;;;;;5.78;1.75;;;4.50;99.90;;;;;;6308687;22;20007;-89
2023/02/27 01:10:15;;;;;;;8.23;1.60;;;3.90;99.90;;;;;;6308234;22;20277;-90
2023/02/27 01:13:13;;;;;;;2.83;1.50;;;4.40;99.90;;;;;;6303578;22;20035;-88
2023/02/27 01:15:39;;;;;;;6.13;1.50;;;4.00;99.90;;;;;;6272459;22;20095;-88
2023/02/27 01:18:10;;;;;;;3.53;1.27;;;4.40;99.90;;;;;;6277692;22;20377;-88
2023/02/27 01:20:36;;;;;;;6.40;1.60;;;3.90;99.90;;;;;;6277191;22;20015;-89
2023/02/27 01:23:07;;;;;;;5.82;1.48;;;4.30;99.90;;;;;;6277620;22;20501;-88
2023/02/27 01:25:36;;;;;;;3.40;1.20;;;3.90;99.90;;;;;;6277946;22;20008;-88
2023/02/27 01:28:07;;;;;;;4.97;1.27;;;4.30;99.90;;;;;;6276613;22;20057;-88
2023/02/27 01:30:40;;;;;;;5.55;1.17;;;4.50;99.90;;;;;;6277333;22;20008;-89
2023/02/27 01:33:09;;;;;;;10.55;1.40;;;4.20;99.90;;;;;;6277001;22;20352;-89
2023/02/27 01:35:34;;;;;;;4.45;1.55;;;4.50;99.90;;;;;;6276805;22;20004;-88
2023/02/27 01:38:00;;;;;;;9.85;1.83;;;4.40;99.90;;;;;;6277562;22;20353;-88
2023/02/27 01:40:29;;;;;;;6.72;1.45;;;4.40;99.90;;;;;;6277646;22;20054;-90
2023/02/27 01:43:01;;;;;;;3.03;1.40;;;4.80;99.90;;;;;;6276523;22;20086;-88
2023/02/27 01:45:30;;;;;;;3.00;1.25;;;3.90;99.90;;;;;;6277883;22;20003;-89
2023/02/27 01:48:04;;;;;;;2.83;1.10;;;4.40;99.90;;;;;;6277120;22;20386;-88
2023/02/27 01:50:30;;;;;;;5.75;1.20;;;4.30;99.90;;;;;;6276834;22;20071;-88
2023/02/27 01:53:00;;;;;;;6.38;1.55;;;5.00;99.90;;;;;;6277162;22;20007;-88
2023/02/27 01:55:32;;;;;;;4.60;1.30;;;4.20;99.90;;;;;;6276709;22;20023;-90
2023/02/27 01:57:58;;;;;;;8.63;1.50;;;4.30;99.90;;;;;;6276673;22;20340;-90
2023/02/27 02:00:27;;;;;;;6.88;1.35;;;4.40;99.90;;;;;;6276836;22;20020;-90
2023/02/27 02:03:29;;;;;;;5.85;1.27;;;4.20;99.90;;;;;;6299322;22;20039;-89
2023/02/27 02:08:33;;;;;;;4.70;1.15;;;3.70;99.90;;;;;;6307065;22;20074;-89
2023/02/27 02:13:30;;;;;;;6.80;2.03;;;3.60;99.90;;;;;;6307989;22;20019;-90
2023/02/27 02:16:37;;;;;;;6.43;1.35;;;3.50;99.90;;;;;;6307614;22;20019;-90
2023/02/27 02:19:06;;;;;;;2.67;1.15;;;3.20;99.90;;;;;;6279514;22;20023;31
2023/02/27 02:25:27;;;;;;;3.28;1.13;;;3.70;99.90;;;;;;6245879;23;20386;-88
2023/02/27 02:28:30;;;;;;;3.90;0.98;;;3.60;99.90;;;;;;6246172;23;20079;-91
2023/02/27 02:34:06;;;;;;;4.82;1.30;;;3.60;99.90;;;;;;6305122;22;20235;-90
2023/02/27 02:36:58;;;;;;;4.03;1.20;;;3.50;99.90;;;;;;6308085;22;20007;-90
2023/02/27 02:39:57;;;;;;;3.92;1.33;;;3.20;99.90;;;;;;6304356;22;20052;-89
2023/02/27 02:42:54;;;;;;;7.30;1.58;;;3.40;99.90;;;;;;6307341;22;20010;-87
2023/02/27 02:45:58;;;;;;;6.50;1.42;;;3.50;99.90;;;;;;6306864;22;20060;-90
2023/02/27 02:48:31;;;;;;;5.63;1.10;;;3.40;99.90;;;;;;6307902;22;19999;-90
2023/02/27 02:55:21;;;;;;;9.27;1.38;;;3.40;99.90;;;;;;6168901;23;20372;-90
2023/02/27 02:58:28;;;;;;;6.07;1.15;;;3.40;99.90;;;;;;6243102;23;20004;-91
2023/02/27 03:01:24;;;;;;;5.20;1.15;;;3.30;99.90;;;;;;6180491;23;20009;-90
2023/02/27 03:07:28;;;;;;;7.38;1.25;;;3.90;99.90;;;;;;6306524;22;20042;-88
2023/02/27 03:10:05;;;;;;;3.63;1.00;;;3.30;99.90;;;;;;6307728;22;20029;-90
2023/02/27 03:12:33;;;;;;;5.75;1.30;;;3.30;99.90;;;;;;6307738;22;20011;-91
2023/02/27 03:18:06;;;;;;;4.43;1.23;;;3.20;99.90;;;;;;6307393;22;20049;-89
2023/02/27 03:21:01;;;;;;;3.47;1.20;;;4.00;99.90;;;;;;6307230;22;20003;-90
2023/02/27 03:23:42;;;;;;;4.78;1.52;;;3.10;99.90;;;;;;6307704;22;20071;-89
2023/02/27 03:26:11;;;;;;;4.40;1.33;;;3.80;99.90;;;;;;6295755;22;20003;-90
2023/02/27 03:29:03;;;;;;;5.60;1.25;;;3.00;99.90;;;;;;6306982;22;20007;-89
2023/02/27 03:31:39;;;;;;;14.82;1.42;;;3.00;99.90;;;;;;6307209;22;19995;-89
2023/02/27 03:34:35;;;;;;;3.72;1.48;;;3.30;99.90;;;;;;6306011;22;20057;-89
2023/02/27 03:37:38;;;;;;;3.20;1.20;;;3.20;99.90;;;;;;6307335;22;20003;-89
2023/02/27 03:40:11;;;;;;;5.57;1.33;;;3.10;99.90;;;;;;6307439;22;20014;-90
2023/02/27 03:43:11;;;;;;;5.20;1.55;;;3.60;99.90;;;;;;6306833;22;19999;-89
2023/02/27 03:46:04;;;;;;;2.03;1.13;;;3.10;99.90;;;;;;6307584;22;20007;-90
2023/02/27 03:48:43;;;;;;;2.58;1.00;;;3.20;99.90;;;;;;6307260;22;20003;-89
2023/02/27 03:51:38;;;;;;;6.30;1.30;;;3.40;99.90;;;;;;6307534;22;20462;-90
2023/02/27 03:54:14;;;;;;;5.90;1.20;;;2.90;99.90;;;;;;6307465;22;20038;-89
2023/02/27 03:57:14;;;;;;;5.90;1.95;;;3.00;99.90;;;;;;6306723;22;20023;-90
2023/02/27 03:59:40;;;;;;;5.43;1.15;;;2.90;99.90;;;;;;6240337;22;20014;-91
2023/02/27 04:02:11;;;;;;;4.25;1.20;;;4.10;99.90;;;;;;6306542;22;20003;-90
2023/02/27 04:04:40;;;;;;;3.80;1.27;;;3.30;99.90;;;;;;6307650;22;20003;-90
2023/02/27 04:07:34;;;;;;;2.95;1.38;;;3.80;99.90;;;;;;6307516;22;20082;-89
2023/02/27 04:10:37;;;;;;;4.72;1.20;;;2.80;99.90;;;;;;6306597;22;20015;-90
2023/02/27 04:13:40;;;;;;;1.95;0.93;;;3.00;99.90;;;;;;6307173;22;20076;-90
2023/02/27 04:16:44;;;;;;;5.13;1.73;;;2.60;99.90;;;;;;6306483;22;20031;-90
2023/02/27 04:19:41;;;;;;;3.08;1.08;;;2.60;99.90;;;;;;6306905;22;20007;-89
2023/02/27 04:22:46;;;;;;;3.65;1.35;;;2.60;99.90;;;;;;6306794;22;20003;-90
2023/02/27 04:25:49;;;;;;;7.28;1.42;;;2.20;99.90;;;;;;6306488;22;20010;-90
2023/02/27 04:28:16;;;;;;;6.75;1.80;;;2.50;99.90;;;;;;6306879;22;19995;-89
2023/02/27 04:31:42;;;;;;;4.25;1.73;;;3.70;99.90;;;;;;6306641;22;20000;-90
2023/02/27 04:34:22;;;;;;;7.72;1.65;;;2.60;99.90;;;;;;6192340;22;20015;-89
2023/02/27 04:37:14;;;;;;;7.72;1.23;;;3.30;99.90;;;;;;6278622;22;20011;-90
2023/02/27 04:39:50;;;;;;;10.63;1.30;;;2.60;99.90;;;;;;6278021;22;20030;-90
2023/02/27 04:42:22;;;;;;;6.15;1.25;;;3.80;99.90;;;;;;6278313;22;20007;-89
2023/02/27 04:44:50;;;;;;;6.70;2.03;;;3.20;99.90;;;;;;6277780;22;20316;-90
2023/02/27 04:47:17;;;;;;;4.22;1.17;;;3.40;99.90;;;;;;6278058;22;20050;-90
2023/02/27 04:49:53;;;;;;;9.18;1.45;;;3.10;99.90;;;;;;6278047;22;20011;-89
2023/02/27 04:52:47;;;;;;;4.40;1.20;;;3.50;99.90;;;;;;6277263;22;20014;-89
2023/02/27 04:55:26;;;;;;;3.50;1.25;;;2.60;99.90;;;;;;6277968;22;20007;-90
2023/02/27 04:58:18;;;;;;;1.60;1.30;;;3.10;99.90;;;;;;6278358;22;20003;-89
2023/02/27 05:00:53;;;;;;;5.43;1.23;;;2.70;99.90;;;;;;6278332;22;20012;-90
2023/02/27 05:03:25;;;;;;;1.92;1.20;;;3.10;99.90;;;;;;6277669;22;20428;-89
2023/02/27 05:05:56;;;;;;;2.65;1.02;;;3.20;99.90;;;;;;6277506;22;20023;-88
2023/02/27 05:08:48;;;;;;;7.40;1.15;;;2.70;99.90;;;;;;6278024;22;20004;-89
2023/02/27 05:11:55;;;;;;;2.80;0.85;;;2.80;99.90;;;;;;6277648;22;20008;-90
2023/02/27 05:14:53;;;;;;;2.20;1.00;;;2.80;99.90;;;;;;6276794;22;20012;-90
2023/02/27 05:17:55;;;;;;;2.75;1.05;;;2.70;99.90;;;;;;6263920;22;20000;-90
2023/02/27 05:20:26;;;;;;;6.93;1.17;;;2.70;99.90;;;;;;6276898;22;20526;-90
2023/02/27 05:23:26;;;;;;;5.35;1.33;;;2.50;99.90;;;;;;6277814;22;20011;-90
2023/02/27 05:26:28;;;;;;;5.15;1.52;;;2.50;99.90;;;;;;6277949;22;20006;-89
2023/02/27 05:29:27;;;;;;;5.45;1.20;;;2.50;99.90;;;;;;6278420;22;20476;-89
2023/02/27 05:32:30;;;;;;;4.60;1.25;;;2.60;99.90;;;;;;6278131;22;20007;-90
2023/02/27 05:35:37;;;;;;;9.98;1.70;;;2.40;99.90;;;;;;6246232;23;20072;-90
2023/02/27 05:38:56;;;;;;;5.13;1.48;;;1.80;99.90;;;;;;6246571;22;20083;-90
2023/02/27 05:41:33;;;;;;;5.93;1.10;;;2.30;99.90;;;;;;6153433;23;20327;-89
2023/02/27 05:44:10;;;;;;;4.18;1.20;;;2.50;99.90;;;;;;6154236;23;20010;-91
2023/02/27 05:49:34;;;;;;;8.18;1.45;;;2.80;99.90;;;;;;6164076;22;20017;-89
2023/02/27 05:52:03;;;;;;;3.00;1.17;;;2.20;99.90;;;;;;6246747;22;20031;-90
2023/02/27 05:54:59;;;;;;;4.80;1.52;;;2.90;99.90;;;;;;6246826;22;20012;-91
2023/02/27 05:57:40;;;;;;;5.80;1.45;;;2.30;99.90;;;;;;6247214;23;20061;-90
2023/02/27 06:00:33;;;;;;;;;;;2.30;99.90;;;;;;6247433;22;20001;-90
2023/02/27 06:03:02;;;;;;;4.05;1.48;;;2.30;99.90;;;;;;6246597;23;19906;-90
2023/02/27 06:05:36;;;;;;;3.17;1.40;;;2.20;99.90;;;;;;6247731;22;20024;-90
2023/02/27 06:08:05;;;;;;;3.60;1.52;;;3.20;99.90;;;;;;6246493;22;20000;-90
2023/02/27 06:10:33;;;;;;;6.32;1.88;;;3.20;99.90;;;;;;6246653;23;20000;-90
2023/02/27 06:13:03;;;;;;;4.47;1.73;;;2.50;99.90;;;;;;6245689;23;20421;-89
2023/02/27 06:15:37;;;;;;;9.30;2.92;;;2.40;99.90;;;;;;6245364;22;20058;-89
2023/02/27 06:18:06;;;;;;;8.02;2.53;;;2.40;99.90;;;;;;6245204;23;20000;-89
2023/02/27 06:20:38;;;;;;;9.98;3.15;;;3.10;99.90;;;;;;6245224;23;20432;-90
2023/02/27 06:23:04;;;;;;;6.18;2.40;;;2.60;99.90;;;;;;6244806;22;20015;-88
2023/02/27 06:25:33;;;;;;;7.07;2.20;;;2.70;99.90;;;;;;6245418;23;20010;-89
2023/02/27 06:28:01;;;;;;;8.30;3.67;;;2.70;99.90;;;;;;6245629;23;20007;-89
2023/02/27 06:30:35;;;;;;;10.23;4.55;;;2.20;99.90;;;;;;6246259;22;20004;-89
2023/02/27 06:33:04;;;;;;;13.90;4.40;;;3.00;99.90;;;;;;6258632;22;20378;-89
2023/02/27 06:35:36;;;;;;;13.60;5.55;;;2.20;99.90;;;;;;6310349;22;20297;-89
2023/02/27 06:38:07;;;;;;;20.35;4.18;;;2.20;99.90;;;;;;6307961;22;20007;-90
2023/02/27 06:40:37;;;;;;;10.65;2.78;;;2.20;99.90;;;;;;6308320;22;19999;-89
2023/02/27 06:43:11;;;;;;;4.03;2.45;;;2.20;99.90;;;;;;6308009;22;20420;-88
2023/02/27 06:45:40;;;;;;;5.82;2.22;;;2.20;99.90;;;;;;6308052;22;20015;-89
2023/02/27 06:50:34;;;;;;;7.32;2.88;;;2.20;99.90;;;;;;6277233;22;20020;-91
2023/02/27 06:55:34;;;;;;;6.90;2.03;;;2.20;99.90;;;;;;6307282;22;20436;-90
2023/02/27 06:58:05;;;;;;;6.38;3.42;;;1.90;99.90;;;;;;6306069;22;20015;-89
2023/02/27 07:00:36;;;;;;;5.70;3.35;;;2.40;99.90;;;;;;6308071;22;20082;-89
2023/02/27 07:03:07;;;;;;;9.80;4.63;;;2.40;99.90;;;;;;6307445;22;20042;-88
2023/02/27 07:05:40;;;;;;;9.82;4.70;;;2.80;99.90;;;;;;6307055;22;20007;-90
2023/02/27 07:08:09;;;;;;;8.38;4.78;;;3.20;99.90;;;;;;6307140;22;20022;-88
2023/02/27 07:10:42;;;;;;;6.88;3.67;;;2.30;99.90;;;;;;6307576;22;20011;-89
2023/02/27 07:13:10;;;;;;;9.02;2.97;;;3.20;99.90;;;;;;6303855;22;20042;-89
2023/02/27 07:15:39;;;;;;;9.90;2.75;;;3.10;99.90;;;;;;6307910;22;20067;-90
2023/02/27 07:18:11;;;;;;;9.50;3.10;;;3.50;99.90;;;;;;6306266;22;20573;-90
2023/02/27 07:20:42;;;;;;;10.50;4.05;;;2.40;99.90;;;;;;6306003;22;20003;-89
2023/02/27 07:23:11;;;;;;;11.13;4.20;;;2.40;99.90;;;;;;6306045;22;20034;-90
2023/02/27 07:25:43;;;;;;;10.65;3.13;;;3.00;99.90;;;;;;6305673;22;20048;-91
2023/02/27 07:28:11;;;;;;;7.55;2.80;;;2.70;99.90;;;;;;6303402;22;20012;-90
2023/02/27 07:30:44;;;;;;;6.95;3.63;;;3.80;99.90;;;;;;6304993;22;20444;-90
2023/02/27 07:33:18;;;;;;;14.48;6.15;;;3.10;99.90;;;;;;6303344;22;20360;-89
2023/02/27 07:35:47;;;;;;;12.45;5.57;;;2.60;99.90;;;;;;6303692;22;20427;-88
2023/02/27 07:38:18;;;;;;;10.68;3.75;;;3.70;99.90;;;;;;6302405;22;20061;-89
2023/02/27 07:40:47;;;;;;;9.15;2.60;;;2.60;99.90;;;;;;6305423;22;19999;-87
2023/02/27 07:43:16;;;;;;;7.40;1.98;;;3.60;99.90;;;;;;6305169;22;20023;-88
2023/02/27 07:45:45;;;;;;;3.53;1.65;;;2.90;99.90;;;;;;6305890;22;20035;-90
2023/02/27 07:48:28;;;;;;;4.53;1.40;;;2.70;99.90;;;;;;6305814;22;20012;-88
2023/02/27 07:51:05;;;;;;;4.70;1.30;;;2.70;99.90;;;;;;6306688;22;20041;-90
2023/02/27 07:54:02;;;;;;;3.50;1.33;;;3.10;99.90;;;;;;6306282;22;20018;-91
2023/02/27 07:56:54;;;;;;;4.10;1.60;;;2.70;99.90;;;;;;6307442;22;20327;-91
2023/02/27 08:02:03;;;;;;;3.72;1.70;;;2.70;99.90;;;;;;6302829;22;20023;-87
2023/02/27 08:04:30;;;;;;;13.80;1.75;;;2.90;99.90;;;;;;6304050;22;20007;-86
2023/02/27 08:06:56;;;;;;;9.63;1.80;;;2.60;99.90;;;;;;6290471;22;20015;-88
2023/02/27 08:11:54;;;;;;;5.82;1.60;;;2.80;99.90;;;;;;6302220;22;20352;-88
2023/02/27 08:14:22;;;;;;;6.18;1.15;;;3.70;99.90;;;;;;6306955;22;20015;-90
2023/02/27 08:16:53;;;;;;;6.22;1.55;;;3.30;99.90;;;;;;6306384;22;20027;-89
2023/02/27 08:19:22;;;;;;;4.95;2.35;;;3.40;99.90;;;;;;6307006;22;20003;-90
2023/02/27 08:25:20;;;;;;;6.32;1.70;;;3.10;99.90;;;;;;6292499;22;20050;-87
2023/02/27 08:27:55;;;;;;;6.07;2.20;;;3.10;99.90;;;;;;6254988;22;20747;-90
2023/02/27 08:30:23;;;;;;;4.93;1.70;;;3.90;99.90;;;;;;6273105;22;20046;-89
2023/02/27 08:44:50;;;;;;;5.60;1.85;;;3.90;99.90;;;;;;6122046;23;20093;-91
2023/02/27 08:52:01;;;;;;;;;;;;;;;;;;;;;
2023/02/27 08:59:02;;;;;;;;;;;;;;;;;;;;;
2023/02/27 09:06:05;;;;;;;;;;;;;;;;;;;;;
2023/02/27 09:16:27;;;;;;;5.35;1.58;;;3.90;99.90;;;;;;5815879;24;20030;-91
2023/02/27 09:55:15;;;;;;;;;;;;;;;;;;;;;
2023/02/27 09:58:38;;;;;;;11.45;1.83;;;4.80;99.90;;;;;;5744252;24;20091;-91
2023/02/27 10:05:45;;;;;;;;;;;;;;;;;;;;;
2023/02/27 11:41:11;;;;;;;3.80;1.15;;;6.60;99.90;;;;;;6235348;22;1342340;-91
2023/02/27 11:47:16;;;;;;;2.10;0.80;;;6.60;99.90;;;;;;6261845;22;20023;-88
2023/02/27 11:50:14;;;;;;;2.10;1.30;;;6.50;99.90;;;;;;6259190;22;20098;-91
2023/02/27 11:56:29;;;;;;;4.78;1.30;;;6.30;99.90;;;;;;6257389;23;20011;-92
2023/02/27 11:59:45;;;;;;;4.50;1.42;;;6.80;99.90;;;;;;6290847;22;20018;-92
2023/02/27 12:03:11;;;;;;;2.50;1.10;;;6.20;99.90;;;;;;6191774;23;20004;-92
2023/02/27 12:06:17;;;;;;;2.67;0.90;;;6.10;99.90;;;;;;6194671;23;20005;-93
2023/02/27 12:12:26;;;;;;;3.03;0.95;;;6.20;99.90;;;;;;6246302;22;20523;-92
2023/02/27 12:15:41;;;;;;;2.38;1.10;;;6.70;99.90;;;;;;6348476;22;20007;-92
2023/02/27 12:18:40;;;;;;;1.33;0.98;;;6.40;99.90;;;;;;6350926;22;19998;-91
2023/02/27 12:21:22;;;;;;;18.10;1.73;;;6.40;99.90;;;;;;6342447;22;20002;-87
2023/02/27 12:24:38;;;;;;;5.63;1.83;;;7.50;99.90;;;;;;6345560;22;20003;-93
2023/02/27 12:27:40;;;;;;;3.17;0.88;;;6.60;99.90;;;;;;6314613;22;20010;-92
2023/02/27 12:43:30;;;;;;;2.65;0.85;;;6.80;99.90;;;;;;6274480;22;20095;-90
2023/02/27 12:46:14;;;;;;;2.92;1.02;;;6.20;99.90;;;;;;6308515;22;20467;-90
2023/02/27 12:49:01;;;;;;;5.80;0.90;;;7.90;99.90;;;;;;6309335;22;20015;-92
2023/02/27 12:55:16;;;;;;;1.73;1.02;;;6.80;99.90;;;;;;6309304;22;20446;-91
2023/02/27 12:58:19;;;;;;;3.65;1.20;;;6.90;99.90;;;;;;6316268;22;20011;-93
2023/02/27 13:07:08;;;;;;;4.63;1.10;;;7.10;99.90;;;;;;6301775;22;20454;-94
2023/02/27 13:10:06;;;;;;;3.17;0.98;;;6.40;99.90;;;;;;6315291;22;20014;-92
2023/02/27 13:12:57;;;;;;;4.47;1.20;;;5.70;99.60;;;;;;6316666;22;20010;-92
2023/02/27 13:15:40;;;;;;;1.40;0.93;;;7.20;99.90;;;;;;6323983;22;20014;-92
2023/02/27 13:25:14;;;;;;;3.45;0.77;;;7.20;99.80;;;;;;6243686;22;20085;-90
2023/02/27 13:33:40;;;;;;;2.15;0.82;;;7.30;99.90;;;;;;6304271;22;20053;-91
2023/02/27 13:36:21;;;;;;;1.40;0.85;;;7.20;99.90;;;;;;6310379;22;20056;-91
2023/02/27 13:52:37;;;;;;;1.88;0.77;;;7.10;99.90;;;;;;6258217;22;20031;-90
2023/02/27 14:04:57;;;;;;;2.15;1.10;;;7.10;99.90;;;;;;6310326;22;20023;-94
2023/02/27 14:07:26;;;;;;;3.53;1.00;;;6.70;99.90;;;;;;6186492;23;20020;-89
2023/02/27 14:10:08;;;;;;;2.25;1.42;;;7.70;99.90;;;;;;6183949;23;20049;-90
2023/02/27 14:12:44;;;;;;;2.08;0.98;;;7.40;99.90;;;;;;6183112;23;19997;-91
2023/02/27 14:15:32;;;;;;;5.03;1.60;;;7.40;99.90;;;;;;6183932;23;20005;-90
2023/02/27 14:18:00;;;;;;;2.28;1.00;;;7.40;99.90;;;;;;6208316;22;20011;-89
2023/02/27 14:20:29;;;;;;;1.88;1.00;;;8.00;99.90;;;;;;6339461;22;20011;-90
2023/02/27 14:26:23;;;;;;;2.83;1.58;;;7.30;99.90;;;;;;6340493;22;20007;-90
2023/02/27 14:29:01;;;;;;;3.00;0.98;;;7.70;99.90;;;;;;6339598;22;20010;-89
2023/02/27 14:31:39;;;;;;;1.38;0.80;;;7.30;99.90;;;;;;6339702;22;20002;-90
2023/02/27 14:34:14;;;;;;;4.03;1.10;;;7.30;99.90;;;;;;6339381;22;19999;-90
2023/02/27 14:36:50;;;;;;;2.00;1.17;;;8.50;99.90;;;;;;6346397;22;19994;-91
2023/02/27 14:39:27;;;;;;;2.35;1.05;;;7.70;99.90;;;;;;6353891;22;20013;-89
2023/02/27 14:42:32;;;;;;;3.95;1.30;;;8.00;99.90;;;;;;6340802;22;20030;-92
2023/02/27 14:45:30;;;;;;;4.75;1.70;;;8.20;99.90;;;;;;6351711;22;19999;-91
2023/02/27 14:50:52;;;;;;;11.07;3.63;;;7.60;99.90;;;;;;6295782;22;20450;-88
2023/02/27 14:53:36;;;;;;;3.50;1.35;;;8.60;99.90;;;;;;6307185;22;20003;-88
2023/02/27 14:56:19;;;;;;;11.25;1.33;;;8.60;99.90;;;;;;6308000;22;20006;-89
2023/02/27 14:58:58;;;;;;;7.60;1.00;;;8.10;99.90;;;;;;6307704;22;20088;-87
2023/02/27 15:01:26;;;;;;;4.82;1.33;;;8.00;99.90;;;;;;6307419;22;20062;-90
2023/02/27 15:04:19;;;;;;;4.20;1.25;;;8.80;99.90;;;;;;6307650;22;20006;-89
2023/02/27 15:06:59;;;;;;;2.95;1.13;;;8.60;99.90;;;;;;6307705;22;19999;-89
2023/02/27 15:09:41;;;;;;;;;;;8.60;99.90;;;;;;6308209;22;20095;-90
2023/02/27 15:12:08;;;;;;;3.88;1.42;;;7.70;99.90;;;;;;6307834;22;19945;-91
2023/02/27 15:14:48;;;;;;;2.25;1.10;;;8.20;99.90;;;;;;6306530;22;20004;-90
2023/02/27 15:17:40;;;;;;;3.07;1.20;;;8.20;99.90;;;;;;6307830;22;20007;-90
2023/02/27 15:20:39;;;;;;;3.33;1.08;;;7.60;99.90;;;;;;6307823;22;20327;-87
2023/02/27 15:25:46;;;;;;;2.28;1.35;;;7.50;99.90;;;;;;6315869;22;20034;-90
2023/02/27 15:28:34;;;;;;;2.15;1.10;;;8.30;99.90;;;;;;6338811;22;20014;-89
2023/02/27 15:31:00;;;;;;;4.50;1.05;;;8.00;99.90;;;;;;6338692;22;20109;-90
2023/02/27 15:33:42;;;;;;;1.63;1.23;;;8.00;99.90;;;;;;6340130;22;20003;-89
2023/02/27 15:36:30;;;;;;;1.25;0.70;;;7.90;99.90;;;;;;6347599;22;20368;-89
2023/02/27 15:39:14;;;;;;;2.20;1.10;;;8.20;99.90;;;;;;6339199;22;20052;-88
2023/02/27 15:41:51;;;;;;;3.78;0.90;;;7.30;99.90;;;;;;6338254;22;20010;-90
2023/02/27 15:44:36;;;;;;;3.00;1.00;;;8.10;99.90;;;;;;6338135;22;19999;-90
2023/02/27 15:47:42;;;;;;;4.72;0.90;;;9.00;99.90;;;;;;6338414;22;20009;-88
2023/02/27 15:50:16;;;;;;;11.48;1.48;;;7.70;99.90;;;;;;6181775;23;20161;-89
2023/02/27 15:52:50;;;;;;;3.15;0.95;;;7.60;99.90;;;;;;6320420;22;20007;-89
2023/02/27 15:55:29;;;;;;;5.13;0.90;;;7.50;99.90;;;;;;6339560;22;20007;-89
2023/02/27 15:58:39;;;;;;;2.85;0.82;;;8.10;99.90;;;;;;6340042;22;20006;-90
2023/02/27 16:01:33;;;;;;;2.03;0.90;;;7.60;99.90;;;;;;6354779;22;20007;-87
2023/02/27 16:04:39;;;;;;;3.03;1.30;;;7.60;99.90;;;;;;6331888;22;20291;-89
2023/02/27 16:07:27;;;;;;;2.28;1.30;;;8.50;99.90;;;;;;6317078;22;20002;-93
2023/02/27 16:13:38;;;;;;;2.22;0.93;;;8.40;99.90;;;;;;6184022;23;20083;-89
2023/02/27 16:16:25;;;;;;;2.08;0.80;;;8.10;99.90;;;;;;6184754;23;20017;-90
2023/02/27 16:19:14;;;;;;;2.60;0.95;;;8.10;99.90;;;;;;6296076;22;20115;-88
2023/02/27 16:22:29;;;;;;;2.25;0.85;;;6.90;99.90;;;;;;6344001;22;20010;-91
2023/02/27 16:27:30;;;;;;;2.58;1.20;;;7.60;99.90;;;;;;6344301;22;20049;-92
2023/02/27 16:30:12;;;;;;;2.70;0.88;;;8.50;99.90;;;;;;6343780;22;20038;-89
2023/02/27 16:36:28;;;;;;;2.63;1.08;;;6.60;99.90;;;;;;6337152;22;20013;-89
2023/02/27 16:39:12;;;;;;;4.07;1.20;;;7.50;99.90;;;;;;6338351;22;20011;-91
2023/02/27 16:41:54;;;;;;;1.08;0.98;;;8.10;99.90;;;;;;6348945;22;20018;-89
2023/02/27 16:44:21;;;;;;;1.50;0.90;;;7.90;99.90;;;;;;6351553;22;20011;-88
2023/02/27 16:47:05;;;;;;;3.65;1.20;;;8.10;99.90;;;;;;6338346;22;20430;-89
2023/02/27 16:49:52;;;;;;;1.40;1.08;;;7.40;99.90;;;;;;6340192;22;20006;-89
2023/02/27 16:52:32;;;;;;;2.47;1.88;;;7.90;99.90;;;;;;6338766;22;20006;-89
2023/02/27 16:54:58;;;;;;;;;;;6.90;99.90;;;;;;6339702;22;20002;-88
2023/02/27 16:57:33;;;;;;;3.42;1.10;;;7.00;99.90;;;;;;6340456;22;19906;-92
2023/02/27 17:00:15;;;;;;;3.00;1.23;;;7.50;99.90;;;;;;6339487;22;20026;-88
2023/02/27 17:02:53;;;;;;;2.88;1.40;;;6.90;99.90;;;;;;6338217;22;20132;-88
2023/02/27 17:05:31;;;;;;;3.15;1.40;;;6.80;99.90;;;;;;6339369;22;20089;-90
2023/02/27 17:08:08;;;;;;;2.72;1.30;;;6.90;99.90;;;;;;6337833;22;20002;-87
2023/02/27 17:10:34;;;;;;;2.65;1.75;;;6.40;99.90;;;;;;6336970;22;20006;-89
2023/02/27 17:13:18;;;;;;;5.55;1.98;;;6.90;99.90;;;;;;6339870;22;20098;-90
2023/02/27 17:16:02;;;;;;;2.78;1.90;;;6.70;99.90;;;;;;6338461;22;20002;-91
2023/02/27 17:18:35;;;;;;;2.90;1.80;;;6.60;99.90;;;;;;6339901;22;20003;-89
2023/02/27 17:21:03;;;;;;;2.67;1.80;;;5.90;99.90;;;;;;6356322;22;19983;-90
2023/02/27 17:23:28;;;;;;;3.05;1.80;;;6.50;99.90;;;;;;6339744;22;20054;-90
2023/02/27 17:26:06;;;;;;;3.95;1.92;;;6.40;99.90;;;;;;6338775;22;20033;-89
2023/02/27 17:28:38;;;;;;;6.85;2.47;;;6.00;99.90;;;;;;6339600;22;20007;-89
2023/02/27 17:31:36;;;;;;;4.95;1.88;;;6.30;99.90;;;;;;6339760;22;20039;-91
2023/02/27 17:37:44;;;;;;;6.70;1.33;;;6.20;99.90;;;;;;6309009;22;20282;-90
2023/02/27 17:43:37;;;;;;;10.45;2.15;;;5.70;99.90;;;;;;6311751;22;20436;-95
2023/02/27 17:46:30;;;;;;;2.40;1.50;;;6.40;99.90;;;;;;6312771;22;20003;-93
2023/02/27 17:49:19;;;;;;;5.13;1.58;;;6.10;99.90;;;;;;6287660;22;20094;-91
2023/02/27 17:57:05;;;;;;;7.63;1.60;;;5.90;99.90;;;;;;6305762;22;20023;-95
2023/02/27 18:26:19;;;;;;;6.03;2.35;;;5.50;99.90;;;;;;6264294;22;20402;-94
2023/02/27 18:29:08;;;;;;;6.55;2.92;;;5.90;99.90;;;;;;6289376;22;20007;-94
2023/02/27 18:36:05;;;;;;;6.75;3.33;;;5.00;99.90;;;;;;6281323;22;20018;-94
2023/02/27 18:38:31;;;;;;;8.13;3.75;;;5.40;99.90;;;;;;6284083;22;20053;-93
2023/02/27 18:41:01;;;;;;;5.70;2.90;;;5.30;99.90;;;;;;6280991;22;20011;-91
2023/02/27 18:43:27;;;;;;;6.95;3.67;;;5.90;99.90;;;;;;6278288;22;20004;-90
2023/02/27 18:45:58;;;;;;;4.30;3.80;;;5.80;99.90;;;;;;6278291;22;20137;-93
2023/02/27 18:48:24;;;;;;;12.93;3.45;;;5.10;99.90;;;;;;6277758;22;20012;-91
2023/02/27 18:50:50;;;;;;;5.57;3.13;;;5.60;99.90;;;;;;6278390;22;20086;-91
2023/02/27 18:53:17;;;;;;;8.32;2.70;;;6.00;99.90;;;;;;6276509;22;20000;-90
2023/02/27 18:55:43;;;;;;;5.53;2.97;;;5.50;99.90;;;;;;6277272;22;20003;-92
2023/02/27 18:58:09;;;;;;;4.20;2.83;;;5.90;99.90;;;;;;6277551;22;20054;-91
2023/02/27 19:00:35;;;;;;;3.67;2.65;;;5.20;99.90;;;;;;6277895;22;19999;-92
2023/02/27 19:03:09;;;;;;;7.60;2.97;;;5.50;99.90;;;;;;6278184;22;20010;-94
2023/02/27 19:05:47;;;;;;;5.00;3.38;;;6.00;99.90;;;;;;6283406;22;20034;-93
2023/02/27 19:08:30;;;;;;;4.93;3.30;;;5.70;99.90;;;;;;6291942;22;20016;-92
2023/02/27 19:11:10;;;;;;;9.95;3.67;;;5.90;99.90;;;;;;6279885;22;20018;-91
2023/02/27 19:13:35;;;;;;;7.70;4.10;;;5.20;99.90;;;;;;6277740;22;20028;-89
2023/02/27 19:16:11;;;;;;;6.30;3.60;;;6.00;99.90;;;;;;6278391;22;20439;-90
2023/02/27 19:18:37;;;;;;;10.30;3.80;;;5.90;99.90;;;;;;6277340;22;20062;-93
2023/02/27 19:21:04;;;;;;;7.45;4.43;;;5.90;99.90;;;;;;6281199;22;20068;-93
2023/02/27 19:23:47;;;;;;;5.32;3.47;;;5.10;99.90;;;;;;6278194;22;20061;-92
2023/02/27 19:26:23;;;;;;;8.40;2.92;;;5.10;99.90;;;;;;6277127;22;20354;-90
2023/02/27 19:31:47;;;;;;;6.68;2.67;;;5.70;99.90;;;;;;6279601;22;20019;-93
2023/02/27 19:34:13;;;;;;;4.78;2.40;;;5.50;99.90;;;;;;6280709;22;20034;-91
2023/02/27 19:36:40;;;;;;;3.22;2.80;;;5.60;99.90;;;;;;6280881;22;20000;-92
2023/02/27 19:39:06;;;;;;;14.25;4.53;;;6.20;99.90;;;;;;6279907;22;20473;-92
2023/02/27 19:44:26;;;;;;;3.60;2.25;;;4.90;99.90;;;;;;6220073;22;20024;-96
2023/02/27 19:47:03;;;;;;;6.15;2.83;;;5.60;99.90;;;;;;6280292;22;20008;-92
2023/02/27 19:49:29;;;;;;;5.90;2.92;;;5.00;99.90;;;;;;6281044;22;20138;-92
2023/02/27 19:51:55;;;;;;;5.80;4.05;;;5.30;99.90;;;;;;6280584;22;19999;-93